Time;durP1;ratioP1;P1;durP2;ratioP2;P2;SDS_P1;SDS_P2;PMS_P1;PMS_P2;Temp;Humidity;BMP_temperature;BMP_pressure;BME280_temperature;BME280_humidity;BME280_pressure;Samples;Min_cycle;Max_cycle;Signal;HPM_P1;HPM_P2
2024/01/27 00:01:04;;;;;;;;;;;19.50;55.00;;;;;;5016647;28;20020;-66
2024/01/27 00:03:29;;;;;;;;;;;19.40;54.90;;;;;;5036498;28;20035;-66
2024/01/27 00:05:55;;;;;;;;;;;19.40;54.90;;;;;;5037292;28;19925;-66
2024/01/27 00:08:21;;;;;;;;;;;19.40;54.90;;;;;;5037142;28;20019;-66
2024/01/27 00:10:47;;;;;;;;;;;19.40;54.90;;;;;;5037362;28;19929;-66
2024/01/27 00:13:13;;;;;;;;;;;19.40;54.90;;;;;;5036752;28;19978;-66
2024/01/27 00:15:38;;;;;;;;;;;19.40;54.90;;;;;;5036406;28;19921;-66
2024/01/27 00:18:04;;;;;;;;;;;19.40;54.80;;;;;;5037163;28;20380;-66
2024/01/27 00:20:29;;;;;;;;;;;19.30;54.70;;;;;;5047852;28;19921;-66
2024/01/27 00:22:55;;;;;;;;;;;19.30;54.70;;;;;;5034917;28;20020;-66
2024/01/27 00:25:20;;;;;;;;;;;19.30;54.70;;;;;;5035274;28;20415;-66
2024/01/27 00:27:46;;;;;;;;;;;19.30;54.70;;;;;;5034390;28;19929;-66
2024/01/27 00:30:12;;;;;;;;;;;19.30;54.70;;;;;;5034796;28;19976;-66
2024/01/27 00:32:38;;;;;;;;;;;19.30;54.70;;;;;;5017367;28;19926;-66
2024/01/27 00:35:03;;;;;;;;;;;19.20;54.60;;;;;;5016275;28;19922;-66
2024/01/27 00:37:29;;;;;;;;;;;19.20;54.60;;;;;;5017396;28;19925;-66
2024/01/27 00:39:54;;;;;;;;;;;19.30;54.60;;;;;;5017202;28;19921;-66
2024/01/27 00:42:23;;;;;;;;;;;19.20;54.60;;;;;;5033877;28;20046;-66
2024/01/27 00:44:49;;;;;;;;;;;19.20;54.60;;;;;;5035116;28;19925;-66
2024/01/27 00:47:15;;;;;;;;;;;19.20;54.60;;;;;;5034055;28;20023;-66
2024/01/27 00:49:40;;;;;;;;;;;19.20;54.60;;;;;;5034071;28;20388;-66
2024/01/27 00:52:06;;;;;;;;;;;19.20;54.60;;;;;;5034687;28;20005;-66
2024/01/27 00:54:31;;;;;;;;;;;19.10;54.50;;;;;;5013937;28;20362;-66
2024/01/27 00:56:57;;;;;;;;;;;19.10;54.50;;;;;;5009888;28;20425;-66
2024/01/27 00:59:22;;;;;;;;;;;19.10;54.50;;;;;;5025072;28;19928;-66
2024/01/27 01:01:48;;;;;;;;;;;19.10;54.50;;;;;;5034307;28;19925;-66
2024/01/27 01:04:13;;;;;;;;;;;19.10;54.50;;;;;;5033698;28;20016;-66
2024/01/27 01:06:40;;;;;;;;;;;19.10;54.50;;;;;;5025681;28;19925;-66
2024/01/27 01:09:05;;;;;;;;;;;19.10;54.50;;;;;;4996776;28;19925;-66
2024/01/27 01:11:31;;;;;;;;;;;19.10;54.50;;;;;;5041332;28;20023;-66
2024/01/27 01:13:56;;;;;;;;;;;19.10;54.40;;;;;;5027536;28;20377;-66
2024/01/27 01:16:22;;;;;;;;;;;19.00;54.40;;;;;;5024060;28;19925;-66
2024/01/27 01:18:47;;;;;;;;;;;19.00;54.40;;;;;;5033810;28;19925;-66
2024/01/27 01:21:13;;;;;;;;;;;19.00;54.40;;;;;;5027457;28;20409;-66
2024/01/27 01:23:38;;;;;;;;;;;19.00;54.40;;;;;;4996597;28;19971;-66
2024/01/27 01:26:04;;;;;;;;;;;19.00;54.40;;;;;;4996004;28;19949;-66
2024/01/27 01:28:29;;;;;;;;;;;19.00;54.40;;;;;;4996573;28;19926;-66
2024/01/27 01:30:55;;;;;;;;;;;19.00;54.40;;;;;;5012961;28;20044;-66
2024/01/27 01:33:21;;;;;;;;;;;19.00;54.40;;;;;;4996197;28;20277;-66
2024/01/27 01:35:46;;;;;;;;;;;19.00;54.40;;;;;;4996329;28;20397;-66
2024/01/27 01:38:12;;;;;;;;;;;18.90;54.30;;;;;;4995467;28;19933;-66
2024/01/27 01:40:37;;;;;;;;;;;18.90;54.40;;;;;;5022926;28;20356;-66
2024/01/27 01:43:04;;;;;;;;;;;19.00;54.40;;;;;;5030897;28;19932;-66
2024/01/27 01:45:29;;;;;;;;;;;18.90;54.30;;;;;;5052083;28;19925;-66
2024/01/27 01:47:55;;;;;;;;;;;18.90;54.30;;;;;;5053443;28;19924;-66
2024/01/27 01:50:20;;;;;;;;;;;18.90;54.30;;;;;;5053630;28;19932;-66
2024/01/27 01:52:47;;;;;;;;;;;18.90;54.30;;;;;;4996905;28;19953;-66
2024/01/27 01:55:13;;;;;;;;;;;18.90;54.30;;;;;;5013515;28;19960;-66
2024/01/27 01:57:38;;;;;;;;;;;18.90;54.30;;;;;;5013528;28;19968;-66
2024/01/27 02:00:04;;;;;;;;;;;18.90;54.30;;;;;;4995205;28;19929;-66
2024/01/27 02:02:30;;;;;;;;;;;18.90;54.30;;;;;;5032815;28;19936;-66
2024/01/27 02:04:55;;;;;;;;;;;18.90;54.30;;;;;;5052654;28;19925;-66
2024/01/27 02:07:21;;;;;;;;;;;18.80;54.20;;;;;;5021511;28;19978;-66
2024/01/27 02:09:46;;;;;;;;;;;18.80;54.20;;;;;;5018884;28;19929;-66
2024/01/27 02:12:12;;;;;;;;;;;18.80;54.20;;;;;;5013226;28;19983;-66
2024/01/27 02:14:37;;;;;;;;;;;18.80;54.30;;;;;;5012916;28;19926;-66
2024/01/27 02:17:04;;;;;;;;;;;18.80;54.20;;;;;;5034176;28;19931;-66
2024/01/27 02:19:29;;;;;;;;;;;18.80;54.20;;;;;;5033185;28;19925;-66
2024/01/27 02:21:55;;;;;;;;;;;18.80;54.20;;;;;;5032322;28;19948;-66
2024/01/27 02:24:20;;;;;;;;;;;18.80;54.30;;;;;;5015525;28;20008;-65
2024/01/27 02:26:46;;;;;;;;;;;18.80;54.30;;;;;;5040555;28;20112;-66
2024/01/27 02:29:11;;;;;;;;;;;18.80;54.30;;;;;;5033902;28;19935;-66
2024/01/27 02:31:37;;;;;;;;;;;18.80;54.20;;;;;;5023398;28;19948;-66
2024/01/27 02:34:02;;;;;;;;;;;18.80;54.20;;;;;;5003361;28;19932;-66
2024/01/27 02:36:28;;;;;;;;;;;18.80;54.20;;;;;;5033537;28;20360;-66
2024/01/27 02:38:53;;;;;;;;;;;18.80;54.10;;;;;;5033258;28;19924;-66
2024/01/27 02:41:19;;;;;;;;;;;18.80;54.20;;;;;;5014567;28;20341;-66
2024/01/27 02:43:44;;;;;;;;;;;18.80;54.10;;;;;;5032700;28;19932;-66
2024/01/27 02:46:10;;;;;;;;;;;18.80;54.20;;;;;;5032739;28;20345;-66
2024/01/27 02:48:36;;;;;;;;;;;18.80;54.10;;;;;;5007478;28;19922;-66
2024/01/27 02:51:04;;;;;;;;;;;18.80;54.10;;;;;;5016226;28;19926;-66
2024/01/27 02:53:30;;;;;;;;;;;18.80;54.10;;;;;;5013120;28;19925;-66
2024/01/27 02:55:55;;;;;;;;;;;18.80;54.10;;;;;;5012248;28;19922;-66
2024/01/27 02:58:21;;;;;;;;;;;18.80;54.10;;;;;;5045465;28;20295;-66
2024/01/27 03:00:46;;;;;;;;;;;18.80;54.10;;;;;;5030000;28;19930;-65
2024/01/27 03:03:12;;;;;;;;;;;18.80;54.10;;;;;;5031172;28;19925;-66
2024/01/27 03:05:38;;;;;;;;;;;18.80;54.10;;;;;;5035563;28;20655;-66
2024/01/27 03:08:03;;;;;;;;;;;18.80;54.10;;;;;;5014089;28;20332;-66
2024/01/27 03:10:29;;;;;;;;;;;18.80;54.10;;;;;;5001768;28;19933;-66
2024/01/27 03:12:54;;;;;;;;;;;18.80;54.10;;;;;;5032426;28;19932;-66
2024/01/27 03:15:20;;;;;;;;;;;18.80;54.10;;;;;;5032944;28;19924;-66
2024/01/27 03:17:45;;;;;;;;;;;18.80;54.10;;;;;;5011813;28;19925;-66
2024/01/27 03:20:11;;;;;;;;;;;18.80;54.10;;;;;;5026595;28;19987;-66
2024/01/27 03:22:36;;;;;;;;;;;18.80;54.10;;;;;;5010941;28;20016;-66
2024/01/27 03:25:02;;;;;;;;;;;18.80;54.10;;;;;;5012014;28;19926;-66
2024/01/27 03:27:27;;;;;;;;;;;18.80;54.00;;;;;;4995517;28;19928;-66
2024/01/27 03:29:53;;;;;;;;;;;18.80;54.00;;;;;;5012324;28;19971;-66
2024/01/27 03:32:18;;;;;;;;;;;18.80;54.00;;;;;;4994707;28;20370;-66
2024/01/27 03:34:45;;;;;;;;;;;18.70;53.90;;;;;;5012763;28;20012;-66
2024/01/27 03:37:10;;;;;;;;;;;18.80;54.00;;;;;;4994811;28;19926;-66
2024/01/27 03:39:36;;;;;;;;;;;18.70;53.90;;;;;;5011918;28;19929;-66
2024/01/27 03:42:01;;;;;;;;;;;18.80;54.00;;;;;;5012403;28;19926;-66
2024/01/27 03:44:27;;;;;;;;;;;18.70;53.90;;;;;;4994360;28;19936;-66
2024/01/27 03:46:52;;;;;;;;;;;18.70;54.00;;;;;;5016152;28;19926;-66
2024/01/27 03:49:18;;;;;;;;;;;18.80;54.00;;;;;;4998724;28;19949;-66
2024/01/27 03:51:43;;;;;;;;;;;18.70;53.90;;;;;;5007318;28;20027;-66
2024/01/27 03:54:08;;;;;;;;;;;18.80;54.00;;;;;;5017661;28;19925;-66
2024/01/27 03:56:34;;;;;;;;;;;18.70;53.90;;;;;;5036095;28;19932;-66
2024/01/27 03:59:00;;;;;;;;;;;18.80;54.00;;;;;;5038480;28;20008;-66
2024/01/27 04:01:25;;;;;;;;;;;18.80;54.00;;;;;;5048505;28;20312;-65
2024/01/27 04:03:51;;;;;;;;;;;18.80;53.90;;;;;;5035862;28;19926;-65
2024/01/27 04:06:16;;;;;;;;;;;18.80;53.90;;;;;;5034678;28;20391;-65
2024/01/27 04:08:45;;;;;;;;;;;18.80;53.90;;;;;;5017825;28;19935;-65
2024/01/27 04:11:18;;;;;;;;;;;18.80;53.90;;;;;;5017323;28;20335;-65
2024/01/27 04:13:43;;;;;;;;;;;18.80;53.90;;;;;;5016960;28;20385;-66
2024/01/27 04:16:09;;;;;;;;;;;18.80;53.90;;;;;;5035039;28;19925;-66
2024/01/27 04:18:34;;;;;;;;;;;18.80;53.90;;;;;;5041713;28;19975;-66
2024/01/27 04:21:00;;;;;;;;;;;18.80;53.90;;;;;;5036337;28;19925;-66
2024/01/27 04:23:26;;;;;;;;;;;18.80;53.90;;;;;;5037405;28;19925;-66
2024/01/27 04:25:51;;;;;;;;;;;18.90;53.90;;;;;;5055103;28;19932;-66
2024/01/27 04:28:17;;;;;;;;;;;18.90;53.90;;;;;;5054472;28;20384;-66
2024/01/27 04:30:42;;;;;;;;;;;18.90;53.90;;;;;;5054983;28;19931;-66
2024/01/27 04:33:08;;;;;;;;;;;18.90;53.80;;;;;;5054853;28;19995;-66
2024/01/27 04:35:34;;;;;;;;;;;18.90;53.80;;;;;;5027005;28;20012;-66
2024/01/27 04:38:00;;;;;;;;;;;18.90;53.80;;;;;;5014766;28;19929;-65
2024/01/27 04:40:25;;;;;;;;;;;18.90;53.80;;;;;;4997723;28;19945;-65
2024/01/27 04:42:50;;;;;;;;;;;19.00;53.90;;;;;;5040187;28;19970;-65
2024/01/27 04:45:16;;;;;;;;;;;19.00;53.80;;;;;;5036715;28;20019;-65
2024/01/27 04:47:41;;;;;;;;;;;19.00;53.80;;;;;;5036807;28;19935;-65
2024/01/27 04:50:07;;;;;;;;;;;19.00;53.80;;;;;;5036813;28;20391;-65
2024/01/27 04:52:32;;;;;;;;;;;19.00;53.80;;;;;;5037104;28;19925;-66
2024/01/27 04:54:58;;;;;;;;;;;19.00;53.80;;;;;;5035769;28;19979;-66
2024/01/27 04:57:23;;;;;;;;;;;19.00;53.70;;;;;;5053547;28;19932;-66
2024/01/27 04:59:49;;;;;;;;;;;19.10;53.80;;;;;;5054594;28;19932;-66
2024/01/27 05:02:14;;;;;;;;;;;19.10;53.80;;;;;;5030254;28;20377;-65
2024/01/27 05:04:40;;;;;;;;;;;19.10;53.70;;;;;;5033682;28;19948;-65
2024/01/27 05:07:05;;;;;;;;;;;19.10;53.70;;;;;;5015926;28;19925;-65
2024/01/27 05:09:31;;;;;;;;;;;19.10;53.70;;;;;;5033722;28;20023;-65
2024/01/27 05:11:57;;;;;;;;;;;19.10;53.70;;;;;;5034193;28;19936;-65
2024/01/27 05:14:22;;;;;;;;;;;19.10;53.70;;;;;;5034229;28;19932;-65
2024/01/27 05:16:48;;;;;;;;;;;19.20;53.70;;;;;;5033505;28;19925;-66
2024/01/27 05:19:15;;;;;;;;;;;19.20;53.70;;;;;;5034197;28;20281;-65
2024/01/27 05:21:40;;;;;;;;;;;19.20;53.70;;;;;;5016753;28;20289;-65
2024/01/27 05:24:06;;;;;;;;;;;19.20;53.70;;;;;;5033237;28;19925;-65
2024/01/27 05:26:31;;;;;;;;;;;19.20;53.70;;;;;;5034047;28;19925;-66
2024/01/27 05:28:57;;;;;;;;;;;19.20;53.70;;;;;;5015992;28;20015;-65
2024/01/27 05:31:22;;;;;;;;;;;19.30;53.70;;;;;;5020130;28;20320;-65
2024/01/27 05:33:48;;;;;;;;;;;19.20;53.60;;;;;;5032972;28;19925;-65
2024/01/27 05:36:13;;;;;;;;;;;19.30;53.70;;;;;;5033566;28;19929;-65
2024/01/27 05:38:39;;;;;;;;;;;19.30;53.60;;;;;;5033425;28;20365;-65
2024/01/27 05:41:04;;;;;;;;;;;19.30;53.60;;;;;;5032348;28;19967;-66
2024/01/27 05:43:30;;;;;;;;;;;19.30;53.60;;;;;;5032374;28;20301;-65
2024/01/27 05:45:55;;;;;;;;;;;19.30;53.60;;;;;;5031526;28;19934;-65
2024/01/27 05:48:21;;;;;;;;;;;19.30;53.60;;;;;;5033691;28;19921;-65
2024/01/27 05:50:59;;;;;;;;;;;19.40;53.70;;;;;;5032429;28;19931;-65
2024/01/27 05:53:25;;;;;;;;;;;19.40;53.60;;;;;;5033675;28;20319;-66
2024/01/27 05:55:50;;;;;;;;;;;19.30;53.50;;;;;;5032902;28;19988;-66
2024/01/27 05:58:16;;;;;;;;;;;19.40;53.60;;;;;;5031642;28;19925;-66
2024/01/27 06:00:45;;;;;;;;;;;19.40;53.60;;;;;;5033496;28;19924;-65
2024/01/27 06:03:10;;;;;;;;;;;19.40;53.60;;;;;;5033018;28;20292;-65
2024/01/27 06:05:36;;;;;;;;;;;19.40;54.20;;;;;;5013771;28;19925;-66
2024/01/27 06:08:01;;;;;;;;;;;19.40;53.60;;;;;;5013223;28;19948;-66
2024/01/27 06:10:27;;;;;;;;;;;19.40;53.50;;;;;;5012320;28;20253;-66
2024/01/27 06:12:52;;;;;;;;;;;19.40;53.50;;;;;;5012458;28;19933;-66
2024/01/27 06:15:18;;;;;;;;;;;19.40;53.50;;;;;;5013777;28;20269;-66
2024/01/27 06:17:43;;;;;;;;;;;19.40;53.50;;;;;;5013335;28;19925;-66
2024/01/27 06:20:09;;;;;;;;;;;19.50;53.60;;;;;;5028320;28;20270;-66
2024/01/27 06:22:35;;;;;;;;;;;19.50;53.50;;;;;;5031849;28;19934;-66
2024/01/27 06:25:00;;;;;;;;;;;19.50;53.50;;;;;;5010136;28;19926;-66
2024/01/27 06:27:26;;;;;;;;;;;19.50;53.40;;;;;;4991565;28;20464;-66
2024/01/27 06:29:51;;;;;;;;;;;19.50;53.50;;;;;;5000107;28;19926;-66
2024/01/27 06:32:16;;;;;;;;;;;19.50;53.40;;;;;;5013513;28;20439;-65
2024/01/27 06:34:42;;;;;;;;;;;19.50;53.40;;;;;;5013183;28;19936;-65
2024/01/27 06:37:07;;;;;;;;;;;19.50;53.40;;;;;;4998296;28;20340;-65
2024/01/27 06:39:33;;;;;;;;;;;19.50;53.40;;;;;;5012223;28;20033;-66
2024/01/27 06:41:58;;;;;;;;;;;19.50;53.40;;;;;;4994500;28;20320;-66
2024/01/27 06:44:24;;;;;;;;;;;19.60;53.40;;;;;;4995654;28;19972;-66
2024/01/27 06:46:50;;;;;;;;;;;19.60;53.40;;;;;;4995622;28;19925;-66
2024/01/27 06:49:16;;;;;;;;;;;19.60;53.30;;;;;;4994828;28;19932;-66
2024/01/27 06:51:41;;;;;;;;;;;19.60;53.30;;;;;;4995713;28;19926;-65
2024/01/27 06:54:07;;;;;;;;;;;19.60;53.30;;;;;;5012999;28;19936;-66
2024/01/27 06:56:32;;;;;;;;;;;19.60;53.30;;;;;;4995229;28;20291;-66
2024/01/27 06:58:58;;;;;;;;;;;19.60;53.30;;;;;;4995143;28;19971;-65
2024/01/27 07:01:23;;;;;;;;;;;19.60;53.30;;;;;;5029449;28;20305;-65
2024/01/27 07:03:49;;;;;;;;;;;19.60;53.30;;;;;;5015017;28;19968;-65
2024/01/27 07:06:14;;;;;;;;;;;19.60;53.30;;;;;;5032787;28;19947;-66
2024/01/27 07:08:40;;;;;;;;;;;19.60;53.30;;;;;;5032092;28;19925;-66
2024/01/27 07:11:05;;;;;;;;;;;19.70;53.30;;;;;;5014770;28;20369;-69
2024/01/27 07:13:31;;;;;;;;;;;19.70;53.30;;;;;;5032520;28;19925;-65
2024/01/27 07:15:57;;;;;;;;;;;19.70;53.30;;;;;;5022665;28;19993;-66
2024/01/27 07:18:23;;;;;;;;;;;19.70;53.30;;;;;;4995464;28;19926;-66
2024/01/27 07:20:49;;;;;;;;;;;19.70;53.30;;;;;;4997490;28;19925;-66
2024/01/27 07:23:14;;;;;;;;;;;19.70;53.30;;;;;;4997824;28;19925;-66
2024/01/27 07:25:40;;;;;;;;;;;19.70;53.30;;;;;;5016799;28;19972;-66
2024/01/27 07:28:05;;;;;;;;;;;19.70;53.30;;;;;;4998918;28;19957;-66
2024/01/27 07:30:31;;;;;;;;;;;19.70;53.30;;;;;;5015527;28;20391;-66
2024/01/27 07:32:56;;;;;;;;;;;19.70;53.30;;;;;;4998591;28;19961;-66
2024/01/27 07:35:22;;;;;;;;;;;19.70;53.40;;;;;;5024641;28;19922;-64
2024/01/27 07:37:47;;;;;;;;;;;19.70;53.60;;;;;;5017041;28;20319;-65
2024/01/27 07:40:13;;;;;;;;;;;19.70;53.70;;;;;;5035717;28;20008;-65
2024/01/27 07:42:38;;;;;;;;;;;19.80;54.00;;;;;;5035555;28;19987;-65
2024/01/27 07:45:04;;;;;;;;;;;19.80;54.00;;;;;;5034700;28;19925;-64
2024/01/27 07:47:30;;;;;;;;;;;19.80;54.20;;;;;;5017841;28;19929;-64
2024/01/27 07:49:55;;;;;;;;;;;19.80;54.10;;;;;;5035841;28;20368;-64
2024/01/27 07:52:21;;;;;;;;;;;19.90;54.30;;;;;;5035396;28;19925;-64
2024/01/27 07:54:46;;;;;;;;;;;19.80;54.20;;;;;;5036125;28;19928;-66
2024/01/27 07:57:12;;;;;;;;;;;19.90;54.40;;;;;;5018059;28;20091;-68
2024/01/27 07:59:37;;;;;;;;;;;19.90;54.20;;;;;;5017514;28;19929;-66
2024/01/27 08:02:03;;;;;;;;;;;19.90;54.10;;;;;;5037710;28;19925;-64
2024/01/27 08:04:29;;;;;;;;;;;19.90;54.30;;;;;;5037587;28;20384;-65
2024/01/27 08:06:54;;;;;;;;;;;19.90;54.30;;;;;;5036773;28;20369;-65
2024/01/27 08:09:20;;;;;;;;;;;19.90;54.40;;;;;;5037747;28;20372;-65
2024/01/27 08:11:45;;;;;;;;;;;20.00;54.50;;;;;;5054938;28;19978;-65
2024/01/27 08:14:11;;;;;;;;;;;20.00;54.40;;;;;;5054935;28;19931;-64
2024/01/27 08:16:36;;;;;;;;;;;20.00;54.30;;;;;;5055659;28;19929;-64
2024/01/27 08:19:02;;;;;;;;;;;20.00;54.50;;;;;;5036405;28;19935;-64
2024/01/27 08:21:27;;;;;;;;;;;20.00;54.60;;;;;;5054807;28;19986;-64
2024/01/27 08:23:53;;;;;;;;;;;20.00;54.60;;;;;;5036968;28;20398;-64
2024/01/27 08:26:20;;;;;;;;;;;20.00;54.60;;;;;;5054515;28;19931;-63
2024/01/27 08:28:46;;;;;;;;;;;20.00;54.50;;;;;;5037129;28;19924;-64
2024/01/27 08:31:11;;;;;;;;;;;20.00;54.60;;;;;;5054279;28;19951;-65
2024/01/27 08:33:37;;;;;;;;;;;20.10;54.70;;;;;;5054259;28;19982;-69
2024/01/27 08:36:03;;;;;;;;;;;20.10;54.70;;;;;;5037057;28;19924;-65
2024/01/27 08:38:28;;;;;;;;;;;20.10;54.50;;;;;;5054760;28;20011;-65
2024/01/27 08:40:54;;;;;;;;;;;20.10;54.40;;;;;;5053883;28;19978;-67
2024/01/27 08:43:19;;;;;;;;;;;20.10;54.40;;;;;;5045144;28;19925;-66
2024/01/27 08:45:45;;;;;;;;;;;20.10;54.30;;;;;;5013843;28;19932;-65
2024/01/27 08:48:11;;;;;;;;;;;20.10;54.30;;;;;;5001902;28;19971;-65
2024/01/27 08:50:37;;;;;;;;;;;20.10;54.30;;;;;;5004082;28;19932;-65
2024/01/27 08:53:02;;;;;;;;;;;20.10;54.30;;;;;;5024950;28;19925;-66
2024/01/27 08:55:28;;;;;;;;;;;20.10;54.30;;;;;;5012781;28;20355;-66
2024/01/27 08:57:53;;;;;;;;;;;20.10;54.30;;;;;;5019922;28;20336;-65
2024/01/27 09:00:19;;;;;;;;;;;20.10;54.30;;;;;;5011275;28;20024;-65
2024/01/27 09:02:44;;;;;;;;;;;20.10;54.30;;;;;;5005413;28;19952;-65
2024/01/27 09:05:10;;;;;;;;;;;20.10;54.20;;;;;;5014970;28;20270;-67
2024/01/27 09:07:35;;;;;;;;;;;20.10;54.20;;;;;;5015851;28;19929;-66
2024/01/27 09:10:01;;;;;;;;;;;20.10;54.20;;;;;;5015184;28;20011;-66
2024/01/27 09:12:27;;;;;;;;;;;20.10;54.10;;;;;;5016431;28;20011;-65
2024/01/27 09:14:53;;;;;;;;;;;20.10;54.10;;;;;;5015621;28;20351;-65
2024/01/27 09:17:19;;;;;;;;;;;20.20;54.10;;;;;;5030521;28;20388;-65
2024/01/27 09:19:45;;;;;;;;;;;20.10;54.10;;;;;;5033866;28;19925;-66
2024/01/27 09:22:10;;;;;;;;;;;20.20;54.10;;;;;;5032648;28;19972;-66
2024/01/27 09:24:36;;;;;;;;;;;20.10;54.00;;;;;;5034334;28;19928;-65
2024/01/27 09:27:01;;;;;;;;;;;20.10;54.00;;;;;;5033867;28;20434;-65
2024/01/27 09:29:27;;;;;;;;;;;20.20;54.00;;;;;;4998972;28;20365;-65
2024/01/27 09:31:52;;;;;;;;;;;20.20;54.00;;;;;;5033758;28;19925;-65
2024/01/27 09:34:18;;;;;;;;;;;20.20;54.00;;;;;;5020164;28;19934;-66
2024/01/27 09:36:43;;;;;;;;;;;20.20;54.10;;;;;;5010399;28;20436;-65
2024/01/27 09:39:09;;;;;;;;;;;20.20;53.90;;;;;;5011909;28;19929;-65
2024/01/27 09:41:34;;;;;;;;;;;20.20;54.00;;;;;;5008686;28;19925;-66
2024/01/27 09:44:03;;;;;;;;;;;20.20;54.00;;;;;;5007036;28;19968;-66
2024/01/27 09:46:29;;;;;;;;;;;20.20;54.10;;;;;;5002472;28;19925;-66
2024/01/27 09:48:55;;;;;;;;;;;20.10;54.10;;;;;;5011567;28;19936;-66
2024/01/27 09:51:21;;;;;;;;;;;20.10;54.10;;;;;;5012195;28;20380;-66
2024/01/27 09:53:46;;;;;;;;;;;20.10;54.10;;;;;;5000929;28;19925;-66
2024/01/27 09:56:17;;;;;;;;;;;20.10;54.10;;;;;;5018284;28;19965;-66
2024/01/27 09:58:43;;;;;;;;;;;20.10;54.10;;;;;;5019165;28;19940;-66
2024/01/27 10:01:08;;;;;;;;;;;20.10;54.20;;;;;;4993617;28;19929;-65
2024/01/27 10:03:34;;;;;;;;;;;20.10;54.20;;;;;;5010813;28;19932;-66
2024/01/27 10:05:59;;;;;;;;;;;20.10;54.20;;;;;;4993185;28;19964;-66
2024/01/27 10:08:25;;;;;;;;;;;20.10;54.20;;;;;;5002805;28;19922;-66
2024/01/27 10:10:53;;;;;;;;;;;20.10;54.30;;;;;;5011349;28;19975;-65
2024/01/27 10:13:25;;;;;;;;;;;20.10;54.30;;;;;;5007669;28;19932;-65
2024/01/27 10:16:04;;;;;;;;;;;20.10;54.30;;;;;;5021246;28;19929;-65
2024/01/27 10:18:30;;;;;;;;;;;20.10;54.30;;;;;;5006730;28;20300;-66
2024/01/27 10:20:55;;;;;;;;;;;20.00;54.20;;;;;;5013141;28;19922;-66
2024/01/27 10:23:21;;;;;;;;;;;20.00;54.10;;;;;;5006008;28;19925;-66
2024/01/27 10:25:46;;;;;;;;;;;20.00;54.20;;;;;;5000779;28;20016;-66
2024/01/27 10:28:12;;;;;;;;;;;20.10;54.30;;;;;;5011920;28;19933;-65
2024/01/27 10:30:37;;;;;;;;;;;20.00;54.20;;;;;;5007109;28;19964;-66
2024/01/27 10:33:03;;;;;;;;;;;20.00;54.20;;;;;;5008248;28;19932;-66
2024/01/27 10:35:28;;;;;;;;;;;20.00;54.30;;;;;;5017732;28;20343;-65
2024/01/27 10:37:54;;;;;;;;;;;20.00;54.30;;;;;;5009468;28;19932;-66
2024/01/27 10:40:19;;;;;;;;;;;20.00;54.30;;;;;;5005210;28;19926;-66
2024/01/27 10:42:45;;;;;;;;;;;20.00;54.30;;;;;;5008436;28;19925;-66
2024/01/27 10:45:11;;;;;;;;;;;20.00;54.30;;;;;;5011255;28;20127;-66
2024/01/27 10:47:36;;;;;;;;;;;20.00;54.30;;;;;;5015623;28;19978;-66
2024/01/27 10:50:02;;;;;;;;;;;20.00;54.30;;;;;;4990539;28;19929;-66
2024/01/27 10:52:28;;;;;;;;;;;19.90;54.20;;;;;;5017346;28;19929;-66
2024/01/27 10:54:58;;;;;;;;;;;19.90;54.20;;;;;;5006116;28;19929;-65
2024/01/27 10:57:24;;;;;;;;;;;19.90;54.30;;;;;;5008678;28;20024;-65
2024/01/27 10:59:50;;;;;;;;;;;19.90;54.20;;;;;;5024014;28;20012;-64
2024/01/27 11:02:15;;;;;;;;;;;19.90;54.20;;;;;;4992751;28;19987;-66
2024/01/27 11:04:42;;;;;;;;;;;19.90;54.30;;;;;;5000796;28;19932;-65
2024/01/27 11:07:07;;;;;;;;;;;19.90;54.30;;;;;;4998291;28;19932;-65
2024/01/27 11:09:32;;;;;;;;;;;19.90;54.20;;;;;;5005953;28;19925;-66
2024/01/27 11:11:58;;;;;;;;;;;19.90;54.10;;;;;;5012005;28;20407;-66
2024/01/27 11:14:23;;;;;;;;;;;19.90;54.20;;;;;;5008335;28;19930;-67
2024/01/27 11:16:54;;;;;;;;;;;19.80;54.20;;;;;;5014184;28;20377;-67
2024/01/27 11:19:20;;;;;;;;;;;19.80;54.20;;;;;;5022353;28;20033;-64
2024/01/27 11:21:45;;;;;;;;;;;19.80;54.20;;;;;;5009485;28;19929;-64
2024/01/27 11:24:15;;;;;;;;;;;19.80;54.20;;;;;;5013558;28;19928;-64
2024/01/27 11:26:41;;;;;;;;;;;19.80;54.20;;;;;;5022963;28;19988;-73
2024/01/27 11:29:07;;;;;;;;;;;19.80;54.10;;;;;;5011814;28;19925;-66
2024/01/27 11:31:32;;;;;;;;;;;19.80;54.20;;;;;;5011788;28;19925;-64
2024/01/27 11:33:58;;;;;;;;;;;19.80;54.40;;;;;;5021655;28;19935;-65
2024/01/27 11:36:24;;;;;;;;;;;19.80;54.50;;;;;;5019131;28;20653;-73
2024/01/27 11:38:50;;;;;;;;;;;19.80;54.40;;;;;;5012296;28;20434;-71
2024/01/27 11:41:26;;;;;;;;;;;19.80;54.40;;;;;;5011283;28;19925;-65
2024/01/27 11:43:52;;;;;;;;;;;19.80;54.50;;;;;;5012692;28;19925;-65
2024/01/27 11:46:17;;;;;;;;;;;19.80;54.50;;;;;;5021923;28;19932;-62
2024/01/27 11:48:43;;;;;;;;;;;19.80;54.50;;;;;;5023435;28;19948;-66
2024/01/27 11:51:10;;;;;;;;;;;19.80;54.60;;;;;;5022131;28;19943;-63
2024/01/27 11:53:36;;;;;;;;;;;19.80;54.60;;;;;;5005149;28;20369;-66
2024/01/27 11:56:01;;;;;;;;;;;19.90;54.70;;;;;;5018908;28;20012;-66
2024/01/27 11:58:27;;;;;;;;;;;19.80;54.70;;;;;;5021004;28;19956;-65
2024/01/27 12:00:53;;;;;;;;;;;19.80;54.80;;;;;;5012834;28;20297;-64
2024/01/27 12:03:18;;;;;;;;;;;19.90;54.80;;;;;;5035845;28;19929;-64
2024/01/27 12:05:44;;;;;;;;;;;19.90;54.70;;;;;;4999693;28;19929;-65
2024/01/27 12:08:09;;;;;;;;;;;19.90;54.60;;;;;;5035210;28;19932;-65
2024/01/27 12:10:35;;;;;;;;;;;19.90;54.60;;;;;;5018133;28;20028;-65
2024/01/27 12:13:00;;;;;;;;;;;19.90;55.30;;;;;;5016872;28;19925;-65
2024/01/27 12:15:26;;;;;;;;;;;19.90;54.60;;;;;;5017400;28;19932;-65
2024/01/27 12:17:52;;;;;;;;;;;19.90;54.60;;;;;;5016799;28;20468;-65
2024/01/27 12:20:17;;;;;;;;;;;19.90;54.70;;;;;;5017674;28;19925;-65
2024/01/27 12:22:43;;;;;;;;;;;19.90;54.70;;;;;;5017562;28;19991;-65
2024/01/27 12:25:09;;;;;;;;;;;19.90;54.70;;;;;;5033413;28;20001;-66
2024/01/27 12:27:35;;;;;;;;;;;19.90;54.70;;;;;;5013237;28;19928;-66
2024/01/27 12:30:00;;;;;;;;;;;19.90;54.80;;;;;;5015443;28;19925;-68
2024/01/27 12:32:26;;;;;;;;;;;19.90;54.80;;;;;;5015942;28;19925;-69
2024/01/27 12:34:52;;;;;;;;;;;19.90;54.80;;;;;;5016235;28;19925;-66
2024/01/27 12:37:17;;;;;;;;;;;19.90;55.00;;;;;;5013905;28;20363;-63
2024/01/27 12:39:44;;;;;;;;;;;19.90;54.90;;;;;;5014814;28;19936;-64
2024/01/27 12:42:10;;;;;;;;;;;19.90;55.00;;;;;;5015967;28;19979;-66
2024/01/27 12:44:35;;;;;;;;;;;19.90;55.10;;;;;;5016250;28;19925;-66
2024/01/27 12:47:01;;;;;;;;;;;19.90;55.10;;;;;;5015204;28;19926;-65
2024/01/27 12:49:26;;;;;;;;;;;20.00;55.20;;;;;;5015269;28;19932;-65
2024/01/27 12:51:52;;;;;;;;;;;20.00;55.20;;;;;;5015988;28;19925;-66
2024/01/27 12:54:17;;;;;;;;;;;20.00;55.20;;;;;;5015623;28;19933;-70
2024/01/27 12:56:43;;;;;;;;;;;20.00;55.20;;;;;;5013834;28;19991;-65
2024/01/27 12:59:08;;;;;;;;;;;20.00;55.20;;;;;;5033790;28;19929;-68
2024/01/27 13:01:34;;;;;;;;;;;20.00;55.20;;;;;;5015341;28;19977;-67
2024/01/27 13:04:00;;;;;;;;;;;20.00;55.10;;;;;;5033481;28;19925;-69
2024/01/27 13:06:26;;;;;;;;;;;20.00;55.10;;;;;;5016306;28;19975;-72
2024/01/27 13:08:52;;;;;;;;;;;20.10;55.10;;;;;;5015489;28;19989;-73
2024/01/27 13:11:17;;;;;;;;;;;20.10;55.10;;;;;;5012757;28;19925;-67
2024/01/27 13:13:42;;;;;;;;;;;20.10;55.30;;;;;;5013457;28;19929;-64
2024/01/27 13:16:08;;;;;;;;;;;20.10;55.30;;;;;;5015262;28;19936;-67
2024/01/27 13:18:33;;;;;;;;;;;20.10;55.30;;;;;;5014860;28;19925;-64
2024/01/27 13:20:59;;;;;;;;;;;20.10;55.30;;;;;;5015484;28;20007;-66
2024/01/27 13:23:25;;;;;;;;;;;20.10;55.40;;;;;;5033204;28;19924;-65
2024/01/27 13:25:50;;;;;;;;;;;20.10;55.30;;;;;;5016054;28;19950;-65
2024/01/27 13:28:16;;;;;;;;;;;20.20;55.50;;;;;;5032379;28;20266;-65
2024/01/27 13:30:42;;;;;;;;;;;20.20;55.50;;;;;;5015355;28;19929;-65
2024/01/27 13:33:07;;;;;;;;;;;20.20;55.40;;;;;;5015194;28;19925;-65
2024/01/27 13:35:32;;;;;;;;;;;20.20;55.50;;;;;;5014512;28;19971;-66
2024/01/27 13:38:08;;;;;;;;;;;20.20;55.40;;;;;;5110303;27;20367;-66
2024/01/27 13:40:34;;;;;;;;;;;20.20;55.40;;;;;;5109029;28;19924;-65
2024/01/27 13:43:00;;;;;;;;;;;20.20;55.50;;;;;;5108082;28;19929;-68
2024/01/27 13:45:25;;;;;;;;;;;20.30;55.50;;;;;;5109483;28;19993;-65
2024/01/27 13:47:51;;;;;;;;;;;20.30;55.40;;;;;;5110618;28;20509;-69
2024/01/27 13:50:16;;;;;;;;;;;20.30;55.20;;;;;;5107681;28;20406;-67
2024/01/27 13:52:44;;;;;;;;;;;20.30;55.30;;;;;;5109222;28;20272;-68
2024/01/27 13:55:10;;;;;;;;;;;20.30;55.20;;;;;;5107984;28;19977;-67
2024/01/27 13:57:35;;;;;;;;;;;20.30;55.20;;;;;;5110057;28;19924;-66
2024/01/27 14:00:01;;;;;;;;;;;20.40;55.30;;;;;;5108208;28;19924;-66
2024/01/27 14:02:26;;;;;;;;;;;20.40;55.30;;;;;;5110684;28;20409;-66
2024/01/27 14:04:52;;;;;;;;;;;20.40;55.30;;;;;;5094840;28;19924;-66
2024/01/27 14:07:17;;;;;;;;;;;20.40;55.10;;;;;;5108708;28;20412;-66